createdAt,value
2023-02-13T00:04:24.646Z,1.63
2023-02-13T00:07:27.771Z,0.90
2023-02-13T00:14:37.413Z,1.27
2023-02-13T00:18:14.815Z,1.00
2023-02-13T00:25:02.669Z,2.20
2023-02-13T00:28:21.750Z,3.55
2023-02-13T00:34:40.175Z,0.60
2023-02-13T00:47:54.744Z,0.73
2023-02-13T00:50:50.131Z,1.35
2023-02-13T00:53:42.666Z,0.90
2023-02-13T00:56:52.611Z,2.17
2023-02-13T00:59:43.455Z,1.65
2023-02-13T01:02:36.769Z,0.88
2023-02-13T01:05:32.825Z,1.77
2023-02-13T01:08:38.795Z,1.00
2023-02-13T01:11:29.521Z,0.95
2023-02-13T01:14:21.988Z,1.30
2023-02-13T01:17:16.443Z,0.80
2023-02-13T01:20:09.477Z,0.60
2023-02-13T01:23:12.526Z,1.17
2023-02-13T01:26:10.981Z,0.57
2023-02-13T01:32:25.482Z,0.88
2023-02-13T01:38:23.617Z,0.55
2023-02-13T01:41:20.480Z,0.75
2023-02-13T01:44:43.491Z,0.88
2023-02-13T01:47:48.712Z,0.50
2023-02-13T01:50:46.073Z,3.08
2023-02-13T01:53:52.351Z,0.70
2023-02-13T02:00:23.935Z,0.40
2023-02-13T02:04:01.781Z,0.65
2023-02-13T02:07:00.568Z,0.50
2023-02-13T02:09:53.064Z,0.52
2023-02-13T02:13:37.918Z,1.10
2023-02-13T02:16:34.490Z,0.40
2023-02-13T02:19:34.186Z,0.50
2023-02-13T02:22:48.377Z,0.70
2023-02-13T02:29:41.130Z,1.33
2023-02-13T02:32:44.859Z,0.85
2023-02-13T02:36:00.189Z,0.43
2023-02-13T02:39:06.942Z,1.20
2023-02-13T02:42:18.100Z,0.30
2023-02-13T02:45:14.060Z,0.40
2023-02-13T02:48:29.735Z,0.35
2023-02-13T02:51:25.313Z,1.67
2023-02-13T02:54:38.789Z,0.40
2023-02-13T02:57:51.782Z,0.47
2023-02-13T03:01:08.009Z,0.28
2023-02-13T03:04:24.882Z,0.70
2023-02-13T03:07:24.046Z,0.43
2023-02-13T03:10:34.693Z,1.17
2023-02-13T03:13:48.732Z,0.30
2023-02-13T03:21:22.318Z,0.30
2023-02-13T04:07:42.466Z,1.15
2023-02-13T05:10:07.302Z,0.80
2023-02-13T05:13:13.868Z,0.38
2023-02-13T05:16:18.831Z,0.50
2023-02-13T05:22:57.773Z,0.25
2023-02-13T05:29:36.964Z,3.65
2023-02-13T05:32:59.818Z,6.07
2023-02-13T05:40:16.788Z,1.70
2023-02-13T05:51:45.904Z,3.45
2023-02-13T05:54:37.395Z,4.45
2023-02-13T05:57:27.133Z,3.85
2023-02-13T06:22:28.596Z,2.72
2023-02-13T06:25:28.592Z,4.30
2023-02-13T06:28:42.983Z,5.13
2023-02-13T06:43:33.720Z,1.60
2023-02-13T06:50:16.875Z,3.80
2023-02-13T06:53:13.433Z,4.45
2023-02-13T06:56:49.616Z,4.13
2023-02-13T07:03:35.208Z,4.57
2023-02-13T07:07:15.763Z,3.17
2023-02-13T07:21:07.243Z,3.50
2023-02-13T07:27:30.056Z,4.95
2023-02-13T08:25:49.357Z,4.32
2023-02-13T09:28:03.552Z,2.88
2023-02-13T09:37:55.635Z,4.50
2023-02-13T09:55:07.019Z,2.72
2023-02-13T09:58:17.436Z,2.90
2023-02-13T10:13:10.256Z,4.68
2023-02-13T11:01:29.652Z,3.00
2023-02-13T11:39:34.769Z,2.85
2023-02-13T11:46:26.076Z,1.88
2023-02-13T11:49:19.794Z,2.10
2023-02-13T12:20:35.830Z,0.93
2023-02-13T12:27:35.354Z,0.98
2023-02-13T12:31:31.377Z,1.25
2023-02-13T12:35:00.874Z,2.15
2023-02-13T12:52:30.464Z,2.75
2023-02-13T12:59:55.850Z,3.30
2023-02-13T13:02:59.713Z,2.22
2023-02-13T13:06:16.750Z,1.15
2023-02-13T13:16:46.439Z,3.30
2023-02-13T13:19:56.839Z,1.48
2023-02-13T13:23:04.301Z,1.20
2023-02-13T13:26:10.193Z,1.77
2023-02-13T13:32:39.546Z,1.30
2023-02-13T13:35:41.588Z,0.93
2023-02-13T13:38:40.540Z,0.90
2023-02-13T13:41:43.169Z,0.65
2023-02-13T13:45:23.280Z,1.05
2023-02-13T13:48:31.915Z,1.35
2023-02-13T13:54:37.699Z,0.60
2023-02-13T14:01:08.750Z,1.10
2023-02-13T14:04:18.345Z,0.75
2023-02-13T14:14:56.829Z,0.90
2023-02-13T14:17:55.291Z,0.85
2023-02-13T14:21:27.442Z,2.03
2023-02-13T14:24:38.720Z,2.35
2023-02-13T14:27:49.738Z,2.90
2023-02-13T14:30:41.059Z,4.05
2023-02-13T14:33:44.068Z,4.60
2023-02-13T14:43:57.290Z,1.52
2023-02-13T14:46:51.786Z,6.00
2023-02-13T14:49:50.261Z,0.88
2023-02-13T14:52:48.502Z,2.65
2023-02-13T14:55:54.147Z,1.52
2023-02-13T15:02:35.528Z,1.17
2023-02-13T15:05:38.609Z,2.80
2023-02-13T15:08:31.247Z,0.80
2023-02-13T15:11:46.831Z,1.52
2023-02-13T15:18:13.853Z,1.55
2023-02-13T15:21:17.835Z,3.28
2023-02-13T15:24:08.820Z,6.28
2023-02-13T15:27:05.848Z,6.03
2023-02-13T15:30:00.636Z,2.22
2023-02-13T15:33:04.426Z,1.75
2023-02-13T15:36:04.105Z,3.95
2023-02-13T15:39:04.554Z,1.30
2023-02-13T15:48:24.495Z,1.70
2023-02-13T15:51:32.668Z,1.73
2023-02-13T15:57:57.351Z,3.90
2023-02-13T16:00:47.245Z,1.90
2023-02-13T16:03:37.871Z,1.60
2023-02-13T16:06:42.158Z,1.75
2023-02-13T16:09:39.796Z,1.88
2023-02-13T16:12:31.617Z,2.35
2023-02-13T16:15:30.935Z,2.15
2023-02-13T16:18:33.318Z,2.17
2023-02-13T16:21:26.853Z,2.33
2023-02-13T16:24:20.840Z,2.03
2023-02-13T16:27:18.516Z,2.80
2023-02-13T16:30:09.624Z,2.13
2023-02-13T16:33:13.435Z,2.75
2023-02-13T16:36:22.399Z,1.80
2023-02-13T16:39:24.698Z,5.32
2023-02-13T16:42:30.466Z,2.20
2023-02-13T16:45:26.027Z,2.75
2023-02-13T16:48:16.364Z,3.28
2023-02-13T16:51:05.384Z,1.52
2023-02-13T16:53:58.698Z,2.28
2023-02-13T16:56:53.142Z,3.22
2023-02-13T16:59:52.970Z,79.43
2023-02-13T17:02:41.792Z,247.65
2023-02-13T17:05:31.102Z,596.17
2023-02-13T17:08:19.735Z,517.35
2023-02-13T17:11:09.870Z,529.08
2023-02-13T17:13:59.795Z,546.60
2023-02-13T17:16:48.872Z,606.53
2023-02-13T17:19:37.407Z,594.90
2023-02-13T17:22:34.183Z,589.88
2023-02-13T17:25:24.579Z,582.60
2023-02-13T17:28:14.682Z,563.70
2023-02-13T17:31:04.678Z,540.72
2023-02-13T17:33:53.324Z,539.28
2023-02-13T17:36:41.906Z,532.30
2023-02-13T17:39:31.456Z,525.78
2023-02-13T17:42:23.432Z,517.67
2023-02-13T17:45:15.862Z,488.13
2023-02-13T17:48:21.613Z,458.17
2023-02-13T17:51:12.045Z,448.38
2023-02-13T17:54:01.562Z,448.73
2023-02-13T17:56:50.816Z,438.85
2023-02-13T17:59:39.896Z,420.75
2023-02-13T18:02:33.254Z,396.50
2023-02-13T18:05:41.528Z,397.40
2023-02-13T18:08:30.215Z,399.85
2023-02-13T18:11:18.790Z,385.42
2023-02-13T18:14:07.342Z,388.65
2023-02-13T18:17:08.334Z,365.70
2023-02-13T18:19:58.050Z,357.80
2023-02-13T18:22:50.491Z,358.85
2023-02-13T18:25:39.114Z,337.17
2023-02-13T18:28:28.385Z,339.00
2023-02-13T18:31:17.149Z,325.63
2023-02-13T18:34:05.795Z,324.42
2023-02-13T18:36:54.453Z,319.55
2023-02-13T18:39:44.398Z,306.98
2023-02-13T18:42:33.057Z,279.02
2023-02-13T18:45:21.678Z,279.75
2023-02-13T18:48:10.244Z,270.98
2023-02-13T18:51:01.112Z,274.98
2023-02-13T18:53:49.900Z,270.02
2023-02-13T18:56:40.058Z,257.70
2023-02-13T18:59:28.929Z,251.13
2023-02-13T19:02:17.619Z,264.23
2023-02-13T19:05:06.468Z,241.30
2023-02-13T19:07:55.136Z,229.52
2023-02-13T19:10:43.737Z,229.55
2023-02-13T19:13:34.164Z,210.60
2023-02-13T19:16:23.012Z,211.43
2023-02-13T19:19:12.227Z,213.18
2023-02-13T19:22:00.894Z,186.75
2023-02-13T19:24:49.564Z,193.82
2023-02-13T19:27:39.147Z,189.15
2023-02-13T19:30:29.171Z,181.65
2023-02-13T19:33:17.898Z,174.77
2023-02-13T19:36:11.954Z,169.25
2023-02-13T19:39:02.720Z,170.75
2023-02-13T19:41:51.448Z,156.57
2023-02-13T19:44:40.237Z,160.15
2023-02-13T19:47:30.393Z,151.02
2023-02-13T19:50:19.154Z,138.85
2023-02-13T19:53:08.745Z,144.57
2023-02-13T19:56:00.765Z,139.90
2023-02-13T19:58:49.753Z,132.93
2023-02-13T20:01:38.524Z,124.80
2023-02-13T20:04:29.413Z,128.98
2023-02-13T20:07:18.074Z,126.40
2023-02-13T20:10:08.200Z,116.90
2023-02-13T20:12:56.918Z,109.93
2023-02-13T20:15:45.797Z,123.38
2023-02-13T20:18:35.656Z,107.20
2023-02-13T20:21:26.288Z,107.63
2023-02-13T20:24:14.937Z,103.65
2023-02-13T20:27:03.557Z,101.50
2023-02-13T20:29:58.850Z,103.25
2023-02-13T20:32:55.150Z,100.93
2023-02-13T20:35:43.743Z,84.57
2023-02-13T20:38:33.693Z,84.25
2023-02-13T20:41:24.176Z,80.55
2023-02-13T20:44:14.301Z,79.07
2023-02-13T20:47:02.882Z,79.07
2023-02-13T20:49:51.617Z,81.88
2023-02-13T20:52:40.636Z,69.50
2023-02-13T20:55:30.538Z,68.57
2023-02-13T20:58:19.161Z,60.65
2023-02-13T21:01:13.476Z,58.20
2023-02-13T21:04:02.482Z,65.15
2023-02-13T21:06:51.091Z,64.90
2023-02-13T21:09:39.902Z,51.92
2023-02-13T21:12:29.897Z,59.55
2023-02-13T21:15:18.775Z,58.70
2023-02-13T21:18:07.489Z,50.58
2023-02-13T21:20:57.419Z,49.28
2023-02-13T21:23:46.388Z,49.92
2023-02-13T21:26:35.452Z,45.13
2023-02-13T21:29:25.417Z,48.50
2023-02-13T21:32:14.253Z,44.28
2023-02-13T21:35:02.823Z,48.47
2023-02-13T21:37:51.402Z,47.10
2023-02-13T21:40:40.714Z,45.28
2023-02-13T21:43:29.246Z,42.78
2023-02-13T21:46:20.668Z,45.55
2023-02-13T21:49:13.673Z,39.42
2023-02-13T21:52:02.196Z,43.33
2023-02-13T21:54:50.824Z,37.28
2023-02-13T21:57:39.842Z,37.53
2023-02-13T22:00:28.448Z,33.03
2023-02-13T22:03:18.451Z,39.00
2023-02-13T22:06:07.621Z,33.50
2023-02-13T22:08:59.611Z,35.08
2023-02-13T22:11:49.967Z,32.33
2023-02-13T22:14:40.263Z,41.90
2023-02-13T22:17:33.604Z,29.33
2023-02-13T22:20:23.918Z,31.10
2023-02-13T22:23:12.675Z,28.10
2023-02-13T22:26:01.450Z,29.52
2023-02-13T22:28:50.320Z,26.50
2023-02-13T22:31:39.915Z,26.08
2023-02-13T22:34:28.638Z,23.23
2023-02-13T22:37:18.757Z,26.77
2023-02-13T22:40:08.429Z,29.40
2023-02-13T22:42:58.251Z,23.85
2023-02-13T22:45:46.980Z,21.42
2023-02-13T22:48:37.261Z,24.42
2023-02-13T22:51:28.239Z,23.05
2023-02-13T22:54:18.357Z,23.30
2023-02-13T22:57:07.160Z,24.00
2023-02-13T22:59:55.776Z,17.40
2023-02-13T23:02:44.515Z,20.08
2023-02-13T23:05:33.248Z,20.45
2023-02-13T23:08:21.921Z,20.88
2023-02-13T23:11:32.364Z,20.80
2023-02-13T23:14:24.053Z,22.30
2023-02-13T23:17:30.472Z,15.63
2023-02-13T23:20:20.499Z,17.88
2023-02-13T23:23:09.343Z,17.45
2023-02-13T23:25:57.994Z,17.80
2023-02-13T23:28:48.101Z,14.25
2023-02-13T23:31:36.949Z,14.52
2023-02-13T23:34:25.744Z,14.20
2023-02-13T23:37:14.382Z,13.70
2023-02-13T23:40:03.098Z,17.42
2023-02-13T23:42:51.794Z,13.65
2023-02-13T23:45:41.889Z,12.65
2023-02-13T23:48:30.594Z,17.75
2023-02-13T23:51:21.229Z,15.25
2023-02-13T23:54:10.119Z,11.63
2023-02-13T23:56:58.901Z,12.98
2023-02-13T23:59:47.505Z,13.07
